createdAt,value
2019-01-04T00:02:27.609Z,979.2
2019-01-04T00:12:31.053Z,979.4
2019-01-04T00:22:34.630Z,979.4
2019-01-04T00:32:38.043Z,979.4
2019-01-04T00:42:42.473Z,979.4
2019-01-04T00:52:45.889Z,979.6
2019-01-04T01:02:49.306Z,979.8
2019-01-04T01:12:52.732Z,979.7
2019-01-04T01:22:56.155Z,979.6
2019-01-04T01:32:59.602Z,979.6
2019-01-04T01:43:03.026Z,979.7
2019-01-04T01:53:06.452Z,979.8
2019-01-04T02:03:09.855Z,979.7
2019-01-04T02:13:13.270Z,979.3
2019-01-04T02:23:16.693Z,979.5
2019-01-04T02:33:20.178Z,979.7
2019-01-04T02:43:23.603Z,979.9
2019-01-04T02:53:27.022Z,979.7
2019-01-04T03:03:30.478Z,979.4
2019-01-04T03:13:33.904Z,979.3
2019-01-04T03:23:37.337Z,979.4
2019-01-04T03:33:40.769Z,979.4
2019-01-04T03:43:44.184Z,979.1
2019-01-04T03:53:47.579Z,979.2
2019-01-04T04:03:50.980Z,979.3
2019-01-04T04:13:54.396Z,979.4
2019-01-04T04:23:57.817Z,979.3
2019-01-04T04:34:01.214Z,979.2
2019-01-04T04:44:04.636Z,979.2
2019-01-04T04:54:08.053Z,979.4
2019-01-04T05:04:11.501Z,979.6
2019-01-04T05:14:14.933Z,979.9
2019-01-04T05:24:18.367Z,979.5
2019-01-04T05:34:21.804Z,979.5
2019-01-04T05:44:25.257Z,979.9
2019-01-04T05:54:28.683Z,979.8
2019-01-04T06:04:32.080Z,979.9
2019-01-04T06:14:35.501Z,980
2019-01-04T06:24:38.918Z,980.1
2019-01-04T06:34:42.363Z,980.2
2019-01-04T06:44:45.800Z,979.9
2019-01-04T06:54:49.196Z,980.1
2019-01-04T07:04:53.610Z,980.1
2019-01-04T07:14:57.044Z,980.4
2019-01-04T07:25:00.484Z,980.3
2019-01-04T07:35:03.893Z,980.1
2019-01-04T07:45:07.316Z,980.1
2019-01-04T07:55:10.717Z,980.2
2019-01-04T08:05:14.129Z,979.7
2019-01-04T08:15:17.557Z,978
2019-01-04T08:25:20.977Z,985.3
2019-01-04T08:35:24.369Z,984.5
2019-01-04T08:45:27.776Z,983.7
2019-01-04T08:55:31.203Z,983.8
2019-01-04T09:05:34.609Z,983.3
2019-01-04T09:15:38.052Z,982.9
2019-01-04T09:25:42.469Z,983.1
2019-01-04T09:35:45.869Z,983
2019-01-04T09:45:49.252Z,982.8
2019-01-04T09:55:52.676Z,983
2019-01-04T10:05:56.103Z,983.3
2019-01-04T10:15:59.506Z,982.9
2019-01-04T10:26:02.941Z,982.8
2019-01-04T10:36:06.344Z,982.6
2019-01-04T10:46:09.773Z,982.5
2019-01-04T10:56:13.175Z,982.7
2019-01-04T11:06:16.629Z,982.5
2019-01-04T11:16:20.081Z,982.4
2019-01-04T11:26:23.505Z,982.2
2019-01-04T11:36:26.914Z,982.5
2019-01-04T11:46:30.342Z,982.3
2019-01-04T11:56:33.747Z,982.4
2019-01-04T12:06:37.156Z,981.6
2019-01-04T12:16:40.581Z,981.8
2019-01-04T12:26:44.007Z,981.7
2019-01-04T12:36:47.452Z,981.8
2019-01-04T12:46:50.861Z,981.6
2019-01-04T12:56:54.252Z,981.6
2019-01-04T13:06:57.696Z,981.9
2019-01-04T13:17:01.186Z,982.1
2019-01-04T13:27:04.594Z,981.7
2019-01-04T13:37:07.998Z,981.8
2019-01-04T13:47:11.401Z,982
2019-01-04T13:57:14.831Z,981.5
2019-01-04T14:07:18.241Z,982
2019-01-04T14:17:21.689Z,981.8
2019-01-04T14:27:25.112Z,982
2019-01-04T14:37:28.548Z,982.1
2019-01-04T14:47:31.986Z,982
2019-01-04T14:57:35.375Z,982.1
2019-01-04T15:07:38.799Z,981.9
2019-01-04T15:17:42.194Z,982.3
2019-01-04T15:27:45.625Z,982.1
2019-01-04T15:37:49.057Z,982.3
2019-01-04T15:47:52.464Z,982.1
2019-01-04T15:57:55.890Z,982.4
2019-01-04T16:07:59.296Z,982.4
2019-01-04T16:18:02.818Z,982.5
2019-01-04T16:28:06.218Z,982.2
2019-01-04T16:38:09.654Z,982.2
2019-01-04T16:48:13.091Z,974.6
2019-01-04T16:58:16.527Z,982.1
2019-01-04T17:08:19.959Z,982.2
2019-01-04T17:18:23.394Z,982.8
2019-01-04T17:28:26.837Z,983
2019-01-04T17:38:30.288Z,983.1
2019-01-04T17:48:33.694Z,982.9
2019-01-04T17:58:37.142Z,982.6
2019-01-04T18:08:40.572Z,975.1
2019-01-04T18:18:43.977Z,975.4
2019-01-04T18:28:47.377Z,983.2
2019-01-04T18:38:50.801Z,975.7
2019-01-04T18:48:54.235Z,983.4
2019-01-04T18:58:58.659Z,975.7
2019-01-04T19:09:02.181Z,983.2
2019-01-04T19:19:05.630Z,975.8
2019-01-04T19:29:09.019Z,975.9
2019-01-04T19:39:12.481Z,975.9
2019-01-04T19:49:15.886Z,975.7
2019-01-04T19:59:19.331Z,975.8
2019-01-04T20:09:23.171Z,975.7
2019-01-04T20:19:26.576Z,975.8
2019-01-04T20:29:30.024Z,976.2
2019-01-04T20:39:33.429Z,976.2
2019-01-04T20:49:36.851Z,976.1
2019-01-04T20:59:40.257Z,976.3
2019-01-04T21:09:43.678Z,975.9
2019-01-04T21:19:47.070Z,975.8
2019-01-04T21:29:50.488Z,976.1
2019-01-04T21:39:53.923Z,976
2019-01-04T21:49:57.333Z,975.8
2019-01-04T22:00:00.740Z,975.8
2019-01-04T22:10:04.134Z,975.9
2019-01-04T22:20:07.553Z,976.1
2019-01-04T22:30:10.968Z,975.7
2019-01-04T22:40:14.361Z,976
2019-01-04T22:50:21.443Z,976.1
2019-01-04T23:00:24.866Z,976.2
2019-01-04T23:10:28.278Z,976.3
2019-01-04T23:20:31.678Z,976.1
2019-01-04T23:30:35.112Z,976
2019-01-04T23:40:38.489Z,975.8
2019-01-04T23:50:41.894Z,976
